Time,TemperatureF,DewpointF,PressureIn,WindDirection,WindDirectionDegrees,WindSpeedMPH,WindSpeedGustMPH,Humidity,HourlyPrecipIn,Conditions,Clouds,dailyrainin,SoftwareType,DateUTC
2013-04-28 00:09:00,69.6,67.0,30.13,ESE,113,2.0,6.0,90,0.00,,,0.00,weatherlink.com 1.10,2013-04-28 04:09:00,
2013-04-28 00:24:00,69.4,66.0,30.13,ESE,117,3.0,5.0,90,0.00,,,0.00,weatherlink.com 1.10,2013-04-28 04:24:00,
2013-04-28 00:39:00,69.7,67.0,30.13,ESE,117,2.0,5.0,90,0.00,,,0.00,weatherlink.com 1.10,2013-04-28 04:39:00,
2013-04-28 00:54:00,69.1,66.0,30.13,ESE,109,2.0,4.0,91,0.00,,,0.00,weatherlink.com 1.10,2013-04-28 04:54:00,
2013-04-28 01:09:00,68.5,66.0,30.13,ESE,111,1.0,4.0,92,0.00,,,0.00,weatherlink.com 1.10,2013-04-28 05:09:00,
2013-04-28 01:24:00,68.5,66.0,30.13,ESE,113,1.0,5.0,92,0.00,,,0.00,weatherlink.com 1.10,2013-04-28 05:24:00,
2013-04-28 01:39:00,68.1,66.0,30.12,ESE,113,2.0,4.0,92,0.00,,,0.00,weatherlink.com 1.10,2013-04-28 05:39:00,
2013-04-28 01:54:00,68.1,66.0,30.12,ESE,112,3.0,5.0,92,0.00,,,0.00,weatherlink.com 1.10,2013-04-28 05:54:00,
2013-04-28 02:09:00,68.9,68.0,30.11,ENE,76,4.0,5.0,95,0.00,,,0.00,weatherlink.com 1.10,2013-04-28 06:09:00,
2013-04-28 02:24:00,69.0,68.0,30.11,East,92,3.0,7.0,95,0.00,,,0.00,weatherlink.com 1.10,2013-04-28 06:24:00,
2013-04-28 02:39:00,68.9,68.0,30.10,East,92,5.0,7.0,95,0.00,,,0.00,weatherlink.com 1.10,2013-04-28 06:39:00,
2013-04-28 02:54:00,68.6,67.0,30.10,East,96,1.0,7.0,95,0.00,,,0.00,weatherlink.com 1.10,2013-04-28 06:54:00,
2013-04-28 03:09:00,68.0,66.0,30.10,ESE,107,4.0,5.0,94,0.00,,,0.00,weatherlink.com 1.10,2013-04-28 07:09:00,
2013-04-28 03:24:00,68.1,67.0,30.10,East,92,5.0,7.0,95,0.00,,,0.00,weatherlink.com 1.10,2013-04-28 07:24:00,
2013-04-28 03:39:00,67.0,65.0,30.09,ESE,119,2.0,5.0,94,0.00,,,0.00,weatherlink.com 1.10,2013-04-28 07:39:00,
2013-04-28 03:54:00,66.5,65.0,30.09,ESE,119,2.0,3.0,96,0.00,,,0.00,weatherlink.com 1.10,2013-04-28 07:54:00,
2013-04-28 04:09:00,66.3,65.0,30.07,ESE,119,1.0,4.0,96,0.00,,,0.00,weatherlink.com 1.10,2013-04-28 08:09:00,
2013-04-28 04:24:00,66.1,65.0,30.07,ESE,119,2.0,3.0,96,0.00,,,0.00,weatherlink.com 1.10,2013-04-28 08:24:00,
2013-04-28 04:39:00,66.1,65.0,30.07,ESE,119,2.0,4.0,96,0.00,,,0.00,weatherlink.com 1.10,2013-04-28 08:39:00,
2013-04-28 04:54:00,66.1,65.0,30.07,ESE,118,2.0,3.0,96,0.00,,,0.00,weatherlink.com 1.10,2013-04-28 08:54:00,
2013-04-28 05:09:00,65.8,65.0,30.07,ESE,118,2.0,3.0,96,0.00,,,0.00,weatherlink.com 1.10,2013-04-28 09:09:00,
2013-04-28 05:24:00,65.7,65.0,30.07,ESE,118,2.0,3.0,96,0.00,,,0.00,weatherlink.com 1.10,2013-04-28 09:24:00,
2013-04-28 05:39:00,65.8,65.0,30.07,ESE,117,2.0,4.0,97,0.00,,,0.00,weatherlink.com 1.10,2013-04-28 09:39:00,
2013-04-28 05:54:00,66.3,66.0,30.07,SE,132,4.0,5.0,97,0.00,,,0.00,weatherlink.com 1.10,2013-04-28 09:54:00,
2013-04-28 06:09:00,65.6,65.0,30.07,SE,137,0.0,3.0,96,0.00,,,0.00,weatherlink.com 1.10,2013-04-28 10:09:00,
2013-04-28 06:24:00,65.2,64.0,30.07,SE,137,1.0,2.0,97,0.00,,,0.00,weatherlink.com 1.10,2013-04-28 10:24:00,
2013-04-28 06:39:00,65.4,65.0,30.07,SE,143,2.0,5.0,97,0.00,,,0.00,weatherlink.com 1.10,2013-04-28 10:39:00,
2013-04-28 06:54:00,65.1,64.0,30.08,SSE,158,2.0,4.0,97,0.00,,,0.00,weatherlink.com 1.10,2013-04-28 10:54:00,
2013-04-28 07:09:00,65.6,65.0,30.08,SE,144,3.0,4.0,96,0.00,,,0.00,weatherlink.com 1.10,2013-04-28 11:09:00,
2013-04-28 07:24:00,66.3,65.0,30.08,SSE,150,1.0,4.0,95,0.00,,,0.00,weatherlink.com 1.10,2013-04-28 11:24:00,
2013-04-28 07:39:00,67.0,65.0,30.08,SSE,158,2.0,5.0,93,0.00,,,0.00,weatherlink.com 1.10,2013-04-28 11:39:00,
2013-04-28 07:54:00,68.1,65.0,30.09,SSW,196,1.0,5.0,91,0.00,,,0.00,weatherlink.com 1.10,2013-04-28 11:54:00,
2013-04-28 08:09:00,69.4,66.0,30.10,SE,142,1.0,5.0,88,0.00,,,0.00,weatherlink.com 1.10,2013-04-28 12:09:00,
2013-04-28 08:24:00,70.1,66.0,30.10,ESE,110,2.0,4.0,87,0.00,,,0.00,weatherlink.com 1.10,2013-04-28 12:24:00,
2013-04-28 08:40:00,71.2,66.0,30.10,SSE,161,3.0,6.0,84,0.00,,,0.00,weatherlink.com 1.10,2013-04-28 12:40:00,
2013-04-28 08:55:00,71.7,66.0,30.10,SE,134,6.0,9.0,82,0.00,,,0.00,weatherlink.com 1.10,2013-04-28 12:55:00,
2013-04-28 09:10:00,72.8,67.0,30.11,SE,132,8.0,10.0,81,0.00,,,0.00,weatherlink.com 1.10,2013-04-28 13:10:00,
2013-04-28 09:25:00,73.7,66.0,30.11,SE,127,4.0,12.0,78,0.00,,,0.00,weatherlink.com 1.10,2013-04-28 13:25:00,
2013-04-28 09:40:00,74.7,66.0,30.11,SE,134,8.0,13.0,74,0.00,,,0.00,weatherlink.com 1.10,2013-04-28 13:40:00,
2013-04-28 09:55:00,75.4,66.0,30.11,SSE,158,7.0,14.0,72,0.00,,,0.00,weatherlink.com 1.10,2013-04-28 13:55:00,
2013-04-28 10:10:00,76.9,67.0,30.11,ESE,119,10.0,15.0,71,0.00,,,0.00,weatherlink.com 1.10,2013-04-28 14:10:00,
2013-04-28 10:25:00,76.8,65.0,30.11,SE,130,8.0,14.0,68,0.00,,,0.00,weatherlink.com 1.10,2013-04-28 14:25:00,
2013-04-28 10:40:00,77.8,65.0,30.12,ESE,119,7.0,14.0,65,0.00,,,0.00,weatherlink.com 1.10,2013-04-28 14:40:00,
2013-04-28 10:55:00,78.4,64.0,30.12,SE,124,10.0,14.0,61,0.00,,,0.00,weatherlink.com 1.10,2013-04-28 14:55:00,
2013-04-28 11:10:00,78.0,65.0,30.11,SE,146,6.0,16.0,64,0.00,,,0.00,weatherlink.com 1.10,2013-04-28 15:10:00,
2013-04-28 11:25:00,79.2,64.0,30.12,ESE,119,5.0,14.0,60,0.00,,,0.00,weatherlink.com 1.10,2013-04-28 15:25:00,
2013-04-28 11:40:00,78.9,64.0,30.11,East,95,5.0,12.0,61,0.00,,,0.00,weatherlink.com 1.10,2013-04-28 15:40:00,
2013-04-28 11:55:00,79.8,64.0,30.11,ESE,119,8.0,15.0,58,0.00,,,0.00,weatherlink.com 1.10,2013-04-28 15:55:00,
2013-04-28 12:10:00,80.4,63.0,30.10,SSE,153,3.0,14.0,55,0.00,,,0.00,weatherlink.com 1.10,2013-04-28 16:10:00,
2013-04-28 12:25:00,80.9,64.0,30.10,ESE,121,7.0,13.0,57,0.00,,,0.00,weatherlink.com 1.10,2013-04-28 16:25:00,
2013-04-28 12:40:00,80.4,66.0,30.09,ESE,119,10.0,13.0,61,0.00,,,0.00,weatherlink.com 1.10,2013-04-28 16:40:00,
2013-04-28 12:55:00,81.3,65.0,30.08,SE,134,9.0,16.0,57,0.00,,,0.00,weatherlink.com 1.10,2013-04-28 16:55:00,
2013-04-28 13:10:00,83.0,66.0,30.07,SE,126,10.0,16.0,56,0.00,,,0.00,weatherlink.com 1.10,2013-04-28 17:10:00,
2013-04-28 13:25:00,82.1,63.0,30.07,ESE,102,7.0,14.0,53,0.00,,,0.00,weatherlink.com 1.10,2013-04-28 17:25:00,
2013-04-28 13:40:00,83.1,63.0,30.06,SE,129,7.0,15.0,50,0.00,,,0.00,weatherlink.com 1.10,2013-04-28 17:40:00,
2013-04-28 13:55:00,83.6,62.0,30.05,SE,135,7.0,16.0,48,0.00,,,0.00,weatherlink.com 1.10,2013-04-28 17:55:00,
2013-04-28 14:10:00,83.6,61.0,30.04,SE,134,6.0,13.0,47,0.00,,,0.00,weatherlink.com 1.10,2013-04-28 18:10:00,
2013-04-28 14:25:00,83.7,63.0,30.03,ESE,115,9.0,16.0,50,0.00,,,0.00,weatherlink.com 1.10,2013-04-28 18:25:00,
2013-04-28 14:40:00,83.7,63.0,30.03,SE,144,6.0,19.0,50,0.00,,,0.00,weatherlink.com 1.10,2013-04-28 18:40:00,
2013-04-28 14:55:00,85.0,62.0,30.02,SSE,158,7.0,17.0,46,0.00,,,0.00,weatherlink.com 1.10,2013-04-28 18:55:00,
2013-04-28 15:10:00,84.0,61.0,30.02,SSW,198,3.0,11.0,46,0.00,,,0.00,weatherlink.com 1.10,2013-04-28 19:10:00,
2013-04-28 15:25:00,84.5,61.0,30.02,ESE,119,9.0,11.0,46,0.00,,,0.00,weatherlink.com 1.10,2013-04-28 19:25:00,
2013-04-28 15:40:00,84.8,60.0,30.00,South,173,8.0,15.0,43,0.00,,,0.00,weatherlink.com 1.10,2013-04-28 19:40:00,
2013-04-28 15:55:00,85.1,61.0,30.00,SE,136,11.0,16.0,44,0.00,,,0.00,weatherlink.com 1.10,2013-04-28 19:55:00,
2013-04-28 16:10:00,84.7,60.0,29.99,SE,143,11.0,14.0,43,0.00,,,0.00,weatherlink.com 1.10,2013-04-28 20:10:00,
2013-04-28 16:26:00,85.9,62.0,29.99,ESE,112,5.0,14.0,45,0.00,,,0.00,weatherlink.com 1.10,2013-04-28 20:26:00,
2013-04-28 16:41:00,85.5,60.0,29.99,South,170,4.0,12.0,43,0.00,,,0.00,weatherlink.com 1.10,2013-04-28 20:41:00,
2013-04-28 16:56:00,84.8,61.0,29.98,South,188,6.0,12.0,45,0.00,,,0.00,weatherlink.com 1.10,2013-04-28 20:56:00,
2013-04-28 17:11:00,84.2,61.0,29.98,SSE,157,6.0,12.0,45,0.00,,,0.00,weatherlink.com 1.10,2013-04-28 21:11:00,
2013-04-28 17:26:00,84.0,60.0,29.98,SSE,147,11.0,12.0,45,0.00,,,0.00,weatherlink.com 1.10,2013-04-28 21:26:00,
2013-04-28 17:41:00,83.0,62.0,29.98,SE,136,4.0,15.0,49,0.00,,,0.00,weatherlink.com 1.10,2013-04-28 21:41:00,
2013-04-28 17:56:00,83.1,62.0,29.98,SE,136,9.0,11.0,49,0.00,,,0.00,weatherlink.com 1.10,2013-04-28 21:56:00,
2013-04-28 18:11:00,82.7,63.0,29.97,SSE,148,4.0,13.0,52,0.00,,,0.00,weatherlink.com 1.10,2013-04-28 22:11:00,
2013-04-28 18:26:00,82.4,63.0,29.97,SE,138,5.0,10.0,52,0.00,,,0.00,weatherlink.com 1.10,2013-04-28 22:26:00,
2013-04-28 18:41:00,82.1,63.0,29.97,SSE,157,7.0,12.0,52,0.00,,,0.00,weatherlink.com 1.10,2013-04-28 22:41:00,
2013-04-28 18:56:00,82.0,64.0,29.98,SSE,153,7.0,11.0,54,0.00,,,0.00,weatherlink.com 1.10,2013-04-28 22:56:00,
2013-04-28 19:11:00,81.8,63.0,29.97,SE,130,10.0,13.0,53,0.00,,,0.00,weatherlink.com 1.10,2013-04-28 23:11:00,
2013-04-28 19:26:00,80.7,63.0,29.97,ESE,106,5.0,11.0,56,0.00,,,0.00,weatherlink.com 1.10,2013-04-28 23:26:00,
2013-04-28 19:41:00,79.9,63.0,29.97,ESE,123,5.0,13.0,57,0.00,,,0.00,weatherlink.com 1.10,2013-04-28 23:41:00,
2013-04-28 19:56:00,79.3,64.0,29.97,SE,134,6.0,9.0,60,0.00,,,0.00,weatherlink.com 1.10,2013-04-28 23:56:00,
2013-04-28 20:11:00,78.6,63.0,29.98,SE,130,8.0,10.0,60,0.00,,,0.00,weatherlink.com 1.10,2013-04-29 00:11:00,
2013-04-28 20:26:00,77.9,63.0,29.98,SE,127,7.0,13.0,60,0.00,,,0.00,weatherlink.com 1.10,2013-04-29 00:26:00,
2013-04-28 20:41:00,76.8,62.0,29.99,ESE,123,7.0,14.0,61,0.00,,,0.00,weatherlink.com 1.10,2013-04-29 00:41:00,
2013-04-28 20:57:00,75.6,63.0,29.99,ESE,118,3.0,10.0,65,0.00,,,0.00,weatherlink.com 1.10,2013-04-29 00:57:00,
2013-04-28 21:11:00,75.1,64.0,30.00,SE,125,5.0,11.0,68,0.00,,,0.00,weatherlink.com 1.10,2013-04-29 01:11:00,
2013-04-28 21:26:00,74.5,64.0,30.00,ESE,121,2.0,12.0,69,0.00,,,0.00,weatherlink.com 1.10,2013-04-29 01:26:00,
2013-04-28 21:41:00,73.9,64.0,30.01,SE,143,5.0,12.0,70,0.00,,,0.00,weatherlink.com 1.10,2013-04-29 01:41:00,
2013-04-28 21:56:00,73.7,64.0,30.01,SE,145,7.0,14.0,71,0.00,,,0.00,weatherlink.com 1.10,2013-04-29 01:56:00,
2013-04-28 22:11:00,73.0,63.0,30.01,SE,126,9.0,13.0,71,0.00,,,0.00,weatherlink.com 1.10,2013-04-29 02:11:00,
2013-04-28 22:26:00,72.7,63.0,30.01,SE,146,7.0,12.0,72,0.00,,,0.00,weatherlink.com 1.10,2013-04-29 02:26:00,
2013-04-28 22:41:00,72.2,63.0,30.02,SE,138,8.0,11.0,73,0.00,,,0.00,weatherlink.com 1.10,2013-04-29 02:41:00,
2013-04-28 22:56:00,71.8,63.0,30.02,SE,131,6.0,11.0,74,0.00,,,0.00,weatherlink.com 1.10,2013-04-29 02:56:00,
2013-04-28 23:11:00,71.5,64.0,30.02,SE,146,5.0,11.0,76,0.00,,,0.00,weatherlink.com 1.10,2013-04-29 03:11:00,
2013-04-28 23:26:00,71.3,63.0,30.02,SE,138,7.0,11.0,76,0.00,,,0.00,weatherlink.com 1.10,2013-04-29 03:26:00,
2013-04-28 23:41:00,71.0,64.0,30.03,SSE,152,7.0,9.0,78,0.00,,,0.00,weatherlink.com 1.10,2013-04-29 03:41:00,
2013-04-28 23:56:00,70.7,64.0,30.03,SE,134,9.0,11.0,78,0.00,,,0.00,weatherlink.com 1.10,2013-04-29 03:56:00,